sensor_id;sensor_type;location;lat;lon;timestamp;P1;durP1;ratioP1;P2;durP2;ratioP2
15929;SDS011;8064;51.142;4.780;2023-02-12T00:01:33;20.40;;;14.63;;
15929;SDS011;8064;51.142;4.780;2023-02-12T00:03:59;18.60;;;14.43;;
15929;SDS011;8064;51.142;4.780;2023-02-12T00:06:25;14.90;;;13.40;;
15929;SDS011;8064;51.142;4.780;2023-02-12T00:08:52;14.53;;;13.03;;
15929;SDS011;8064;51.142;4.780;2023-02-12T00:11:21;14.50;;;11.53;;
15929;SDS011;8064;51.142;4.780;2023-02-12T00:13:50;13.83;;;11.90;;
15929;SDS011;8064;51.142;4.780;2023-02-12T00:16:17;12.73;;;10.77;;
15929;SDS011;8064;51.142;4.780;2023-02-12T00:18:44;15.83;;;11.33;;
15929;SDS011;8064;51.142;4.780;2023-02-12T00:21:10;13.70;;;10.97;;
15929;SDS011;8064;51.142;4.780;2023-02-12T00:23:38;11.80;;;10.33;;
15929;SDS011;8064;51.142;4.780;2023-02-12T00:26:06;10.93;;;9.70;;
15929;SDS011;8064;51.142;4.780;2023-02-12T00:28:33;10.97;;;8.63;;
15929;SDS011;8064;51.142;4.780;2023-02-12T00:33:43;5.20;;;4.30;;
15929;SDS011;8064;51.142;4.780;2023-02-12T00:36:12;5.73;;;5.13;;
15929;SDS011;8064;51.142;4.780;2023-02-12T00:38:40;4.60;;;4.20;;
15929;SDS011;8064;51.142;4.780;2023-02-12T00:41:06;7.60;;;5.00;;
15929;SDS011;8064;51.142;4.780;2023-02-12T00:43:32;6.33;;;5.73;;
15929;SDS011;8064;51.142;4.780;2023-02-12T00:45:58;7.07;;;5.57;;
15929;SDS011;8064;51.142;4.780;2023-02-12T00:48:23;7.50;;;6.40;;
15929;SDS011;8064;51.142;4.780;2023-02-12T00:50:49;8.37;;;6.10;;
15929;SDS011;8064;51.142;4.780;2023-02-12T00:53:15;6.13;;;5.53;;
15929;SDS011;8064;51.142;4.780;2023-02-12T00:55:41;10.03;;;6.17;;
15929;SDS011;8064;51.142;4.780;2023-02-12T00:58:06;6.47;;;5.33;;
15929;SDS011;8064;51.142;4.780;2023-02-12T01:00:33;6.67;;;5.97;;
15929;SDS011;8064;51.142;4.780;2023-02-12T01:02:59;7.43;;;6.33;;
15929;SDS011;8064;51.142;4.780;2023-02-12T01:05:25;7.07;;;6.30;;
15929;SDS011;8064;51.142;4.780;2023-02-12T01:07:51;6.33;;;5.73;;
15929;SDS011;8064;51.142;4.780;2023-02-12T01:10:18;7.23;;;5.80;;
15929;SDS011;8064;51.142;4.780;2023-02-12T01:12:45;6.47;;;5.87;;
15929;SDS011;8064;51.142;4.780;2023-02-12T01:15:12;7.77;;;6.07;;
15929;SDS011;8064;51.142;4.780;2023-02-12T01:17:38;7.20;;;5.93;;
15929;SDS011;8064;51.142;4.780;2023-02-12T01:20:05;7.57;;;6.37;;
15929;SDS011;8064;51.142;4.780;2023-02-12T01:22:34;9.67;;;7.17;;
15929;SDS011;8064;51.142;4.780;2023-02-12T01:24:59;9.23;;;8.23;;
15929;SDS011;8064;51.142;4.780;2023-02-12T01:27:25;10.53;;;7.90;;
15929;SDS011;8064;51.142;4.780;2023-02-12T01:29:51;8.27;;;7.07;;
15929;SDS011;8064;51.142;4.780;2023-02-12T01:32:17;7.63;;;6.37;;
15929;SDS011;8064;51.142;4.780;2023-02-12T01:34:42;8.60;;;7.50;;
15929;SDS011;8064;51.142;4.780;2023-02-12T01:37:08;10.80;;;8.20;;
15929;SDS011;8064;51.142;4.780;2023-02-12T01:39:34;8.13;;;7.33;;
15929;SDS011;8064;51.142;4.780;2023-02-12T01:42:00;10.13;;;7.57;;
15929;SDS011;8064;51.142;4.780;2023-02-12T01:44:28;9.73;;;7.67;;
15929;SDS011;8064;51.142;4.780;2023-02-12T01:46:56;9.83;;;7.97;;
15929;SDS011;8064;51.142;4.780;2023-02-12T01:49:23;9.60;;;8.60;;
15929;SDS011;8064;51.142;4.780;2023-02-12T01:51:54;9.27;;;8.07;;
15929;SDS011;8064;51.142;4.780;2023-02-12T01:54:24;9.90;;;8.90;;
15929;SDS011;8064;51.142;4.780;2023-02-12T01:56:53;9.77;;;8.77;;
15929;SDS011;8064;51.142;4.780;2023-02-12T01:59:19;9.00;;;8.10;;
15929;SDS011;8064;51.142;4.780;2023-02-12T02:01:46;9.03;;;7.93;;
15929;SDS011;8064;51.142;4.780;2023-02-12T02:04:13;9.03;;;8.13;;
15929;SDS011;8064;51.142;4.780;2023-02-12T02:06:45;11.87;;;8.90;;
15929;SDS011;8064;51.142;4.780;2023-02-12T02:09:23;9.70;;;8.77;;
15929;SDS011;8064;51.142;4.780;2023-02-12T02:11:50;10.87;;;9.77;;
15929;SDS011;8064;51.142;4.780;2023-02-12T02:14:35;11.50;;;9.23;;
15929;SDS011;8064;51.142;4.780;2023-02-12T02:27:56;10.87;;;9.00;;
15929;SDS011;8064;51.142;4.780;2023-02-12T02:30:31;13.43;;;9.03;;
15929;SDS011;8064;51.142;4.780;2023-02-12T02:38:36;10.30;;;8.17;;
15929;SDS011;8064;51.142;4.780;2023-02-12T02:41:14;9.97;;;8.30;;
15929;SDS011;8064;51.142;4.780;2023-02-12T02:43:46;9.47;;;7.90;;
15929;SDS011;8064;51.142;4.780;2023-02-12T02:46:17;8.60;;;7.70;;
15929;SDS011;8064;51.142;4.780;2023-02-12T02:48:48;9.13;;;7.90;;
15929;SDS011;8064;51.142;4.780;2023-02-12T02:51:28;10.70;;;8.70;;
15929;SDS011;8064;51.142;4.780;2023-02-12T02:53:59;10.73;;;8.67;;
15929;SDS011;8064;51.142;4.780;2023-02-12T02:56:26;10.60;;;8.60;;
15929;SDS011;8064;51.142;4.780;2023-02-12T02:58:54;8.80;;;7.90;;
15929;SDS011;8064;51.142;4.780;2023-02-12T03:01:26;9.60;;;8.13;;
15929;SDS011;8064;51.142;4.780;2023-02-12T03:04:14;11.07;;;8.83;;
15929;SDS011;8064;51.142;4.780;2023-02-12T03:06:47;10.17;;;8.47;;
15929;SDS011;8064;51.142;4.780;2023-02-12T03:09:20;9.60;;;8.60;;
15929;SDS011;8064;51.142;4.780;2023-02-12T03:11:52;9.80;;;8.80;;
15929;SDS011;8064;51.142;4.780;2023-02-12T03:14:25;10.13;;;9.03;;
15929;SDS011;8064;51.142;4.780;2023-02-12T03:16:57;10.43;;;8.33;;
15929;SDS011;8064;51.142;4.780;2023-02-12T03:19:25;9.20;;;8.20;;
15929;SDS011;8064;51.142;4.780;2023-02-12T03:21:56;9.70;;;8.80;;
15929;SDS011;8064;51.142;4.780;2023-02-12T03:24:28;10.67;;;8.67;;
15929;SDS011;8064;51.142;4.780;2023-02-12T03:27:16;11.53;;;8.20;;
15929;SDS011;8064;51.142;4.780;2023-02-12T03:29:58;8.77;;;7.90;;
15929;SDS011;8064;51.142;4.780;2023-02-12T03:34:53;10.27;;;8.27;;
15929;SDS011;8064;51.142;4.780;2023-02-12T03:37:30;9.60;;;8.57;;
15929;SDS011;8064;51.142;4.780;2023-02-12T03:42:47;8.83;;;7.90;;
15929;SDS011;8064;51.142;4.780;2023-02-12T03:53:49;9.63;;;8.40;;
15929;SDS011;8064;51.142;4.780;2023-02-12T03:56:17;11.63;;;9.70;;
15929;SDS011;8064;51.142;4.780;2023-02-12T03:58:47;14.67;;;10.33;;
15929;SDS011;8064;51.142;4.780;2023-02-12T04:01:13;13.73;;;10.50;;
15929;SDS011;8064;51.142;4.780;2023-02-12T04:03:39;12.27;;;10.50;;
15929;SDS011;8064;51.142;4.780;2023-02-12T04:06:18;11.33;;;10.13;;
15929;SDS011;8064;51.142;4.780;2023-02-12T04:08:45;10.77;;;9.37;;
15929;SDS011;8064;51.142;4.780;2023-02-12T04:11:16;11.60;;;10.40;;
15929;SDS011;8064;51.142;4.780;2023-02-12T04:16:46;12.17;;;10.03;;
15929;SDS011;8064;51.142;4.780;2023-02-12T04:19:19;13.00;;;10.53;;
15929;SDS011;8064;51.142;4.780;2023-02-12T04:22:02;10.70;;;9.60;;
15929;SDS011;8064;51.142;4.780;2023-02-12T04:24:43;11.43;;;10.23;;
15929;SDS011;8064;51.142;4.780;2023-02-12T04:27:40;11.90;;;10.60;;
15929;SDS011;8064;51.142;4.780;2023-02-12T04:33:05;12.10;;;10.90;;
15929;SDS011;8064;51.142;4.780;2023-02-12T04:35:39;11.57;;;10.33;;
15929;SDS011;8064;51.142;4.780;2023-02-12T04:38:12;12.50;;;10.07;;
15929;SDS011;8064;51.142;4.780;2023-02-12T04:40:43;10.50;;;9.40;;
15929;SDS011;8064;51.142;4.780;2023-02-12T04:43:09;10.90;;;9.80;;
15929;SDS011;8064;51.142;4.780;2023-02-12T04:45:35;11.63;;;9.97;;
15929;SDS011;8064;51.142;4.780;2023-02-12T04:48:02;11.17;;;9.83;;
15929;SDS011;8064;51.142;4.780;2023-02-12T04:50:34;12.00;;;9.90;;
15929;SDS011;8064;51.142;4.780;2023-02-12T04:53:05;13.73;;;10.37;;
15929;SDS011;8064;51.142;4.780;2023-02-12T04:55:31;13.70;;;10.23;;
15929;SDS011;8064;51.142;4.780;2023-02-12T04:57:56;11.00;;;9.90;;
15929;SDS011;8064;51.142;4.780;2023-02-12T05:00:22;11.73;;;10.20;;
15929;SDS011;8064;51.142;4.780;2023-02-12T05:02:48;12.43;;;11.13;;
15929;SDS011;8064;51.142;4.780;2023-02-12T05:05:14;11.30;;;10.10;;
15929;SDS011;8064;51.142;4.780;2023-02-12T05:07:40;11.00;;;9.87;;
15929;SDS011;8064;51.142;4.780;2023-02-12T05:10:05;11.60;;;10.40;;
15929;SDS011;8064;51.142;4.780;2023-02-12T05:12:32;11.50;;;10.30;;
15929;SDS011;8064;51.142;4.780;2023-02-12T05:14:57;12.33;;;10.00;;
15929;SDS011;8064;51.142;4.780;2023-02-12T05:17:23;11.40;;;10.20;;
15929;SDS011;8064;51.142;4.780;2023-02-12T05:19:49;12.83;;;10.53;;
15929;SDS011;8064;51.142;4.780;2023-02-12T05:22:16;10.73;;;9.50;;
15929;SDS011;8064;51.142;4.780;2023-02-12T05:24:42;11.47;;;10.27;;
15929;SDS011;8064;51.142;4.780;2023-02-12T05:27:07;11.53;;;10.10;;
15929;SDS011;8064;51.142;4.780;2023-02-12T05:29:34;11.33;;;10.13;;
15929;SDS011;8064;51.142;4.780;2023-02-12T05:32:00;11.60;;;10.40;;
15929;SDS011;8064;51.142;4.780;2023-02-12T05:34:26;11.80;;;9.73;;
15929;SDS011;8064;51.142;4.780;2023-02-12T05:36:52;13.27;;;10.70;;
15929;SDS011;8064;51.142;4.780;2023-02-12T05:39:18;12.70;;;10.13;;
15929;SDS011;8064;51.142;4.780;2023-02-12T05:41:44;11.60;;;10.40;;
15929;SDS011;8064;51.142;4.780;2023-02-12T05:44:09;11.60;;;10.40;;
15929;SDS011;8064;51.142;4.780;2023-02-12T05:46:36;11.60;;;10.40;;
15929;SDS011;8064;51.142;4.780;2023-02-12T05:49:02;12.07;;;10.70;;
15929;SDS011;8064;51.142;4.780;2023-02-12T05:51:28;14.30;;;11.17;;
15929;SDS011;8064;51.142;4.780;2023-02-12T05:53:57;13.13;;;11.37;;
15929;SDS011;8064;51.142;4.780;2023-02-12T05:56:25;14.20;;;11.07;;
15929;SDS011;8064;51.142;4.780;2023-02-12T06:01:38;13.33;;;11.00;;
15929;SDS011;8064;51.142;4.780;2023-02-12T06:04:07;12.07;;;10.87;;
15929;SDS011;8064;51.142;4.780;2023-02-12T06:06:37;12.17;;;10.90;;
15929;SDS011;8064;51.142;4.780;2023-02-12T06:09:06;14.67;;;11.13;;
15929;SDS011;8064;51.142;4.780;2023-02-12T06:11:33;13.50;;;11.17;;
15929;SDS011;8064;51.142;4.780;2023-02-12T06:14:01;14.23;;;11.87;;
15929;SDS011;8064;51.142;4.780;2023-02-12T06:16:28;48.37;;;34.23;;
15929;SDS011;8064;51.142;4.780;2023-02-12T06:18:54;39.57;;;25.57;;
15929;SDS011;8064;51.142;4.780;2023-02-12T06:21:22;30.97;;;23.13;;
15929;SDS011;8064;51.142;4.780;2023-02-12T06:23:49;17.30;;;15.40;;
15929;SDS011;8064;51.142;4.780;2023-02-12T06:26:15;17.80;;;14.53;;
15929;SDS011;8064;51.142;4.780;2023-02-12T06:28:41;15.80;;;13.40;;
15929;SDS011;8064;51.142;4.780;2023-02-12T06:31:19;17.57;;;13.27;;
15929;SDS011;8064;51.142;4.780;2023-02-12T06:33:45;16.63;;;13.10;;
15929;SDS011;8064;51.142;4.780;2023-02-12T06:36:11;15.43;;;13.73;;
15929;SDS011;8064;51.142;4.780;2023-02-12T06:38:37;15.00;;;12.40;;
15929;SDS011;8064;51.142;4.780;2023-02-12T06:41:03;16.67;;;13.13;;
15929;SDS011;8064;51.142;4.780;2023-02-12T06:43:29;14.00;;;12.00;;
15929;SDS011;8064;51.142;4.780;2023-02-12T06:45:55;12.53;;;11.23;;
15929;SDS011;8064;51.142;4.780;2023-02-12T06:48:20;11.70;;;10.53;;
15929;SDS011;8064;51.142;4.780;2023-02-12T06:50:46;11.93;;;10.47;;
15929;SDS011;8064;51.142;4.780;2023-02-12T06:53:12;12.10;;;10.87;;
15929;SDS011;8064;51.142;4.780;2023-02-12T06:55:37;13.00;;;11.37;;
15929;SDS011;8064;51.142;4.780;2023-02-12T06:58:03;12.13;;;10.87;;
15929;SDS011;8064;51.142;4.780;2023-02-12T07:00:29;12.40;;;10.80;;
15929;SDS011;8064;51.142;4.780;2023-02-12T07:02:55;13.10;;;11.00;;
15929;SDS011;8064;51.142;4.780;2023-02-12T07:05:21;15.60;;;12.03;;
15929;SDS011;8064;51.142;4.780;2023-02-12T07:07:48;13.90;;;12.27;;
15929;SDS011;8064;51.142;4.780;2023-02-12T07:10:14;16.53;;;12.67;;
15929;SDS011;8064;51.142;4.780;2023-02-12T07:12:40;14.50;;;12.23;;
15929;SDS011;8064;51.142;4.780;2023-02-12T07:15:06;14.47;;;12.30;;
15929;SDS011;8064;51.142;4.780;2023-02-12T07:17:32;12.87;;;11.57;;
15929;SDS011;8064;51.142;4.780;2023-02-12T07:19:57;12.40;;;11.10;;
15929;SDS011;8064;51.142;4.780;2023-02-12T07:22:23;13.37;;;11.97;;
15929;SDS011;8064;51.142;4.780;2023-02-12T07:24:49;13.80;;;12.17;;
15929;SDS011;8064;51.142;4.780;2023-02-12T07:27:15;14.23;;;11.77;;
15929;SDS011;8064;51.142;4.780;2023-02-12T07:29:41;13.90;;;11.50;;
15929;SDS011;8064;51.142;4.780;2023-02-12T07:32:07;13.03;;;11.73;;
15929;SDS011;8064;51.142;4.780;2023-02-12T07:34:33;12.53;;;11.23;;
15929;SDS011;8064;51.142;4.780;2023-02-12T07:36:58;12.87;;;11.67;;
15929;SDS011;8064;51.142;4.780;2023-02-12T07:39:24;14.83;;;13.07;;
15929;SDS011;8064;51.142;4.780;2023-02-12T07:41:50;13.73;;;12.10;;
15929;SDS011;8064;51.142;4.780;2023-02-12T07:44:16;15.40;;;12.40;;
15929;SDS011;8064;51.142;4.780;2023-02-12T07:46:43;16.47;;;13.13;;
15929;SDS011;8064;51.142;4.780;2023-02-12T07:49:12;15.30;;;13.20;;
15929;SDS011;8064;51.142;4.780;2023-02-12T07:51:39;16.50;;;12.67;;
15929;SDS011;8064;51.142;4.780;2023-02-12T07:54:06;17.23;;;12.63;;
15929;SDS011;8064;51.142;4.780;2023-02-12T07:56:33;14.10;;;12.10;;
15929;SDS011;8064;51.142;4.780;2023-02-12T07:59:01;13.93;;;12.47;;
15929;SDS011;8064;51.142;4.780;2023-02-12T08:01:30;13.77;;;11.87;;
15929;SDS011;8064;51.142;4.780;2023-02-12T08:03:58;13.73;;;12.13;;
15929;SDS011;8064;51.142;4.780;2023-02-12T08:06:26;14.63;;;11.60;;
15929;SDS011;8064;51.142;4.780;2023-02-12T08:08:54;16.73;;;12.60;;
15929;SDS011;8064;51.142;4.780;2023-02-12T08:11:23;14.40;;;11.83;;
15929;SDS011;8064;51.142;4.780;2023-02-12T08:13:50;16.67;;;12.83;;
15929;SDS011;8064;51.142;4.780;2023-02-12T08:16:17;14.33;;;12.23;;
15929;SDS011;8064;51.142;4.780;2023-02-12T08:18:44;14.10;;;12.60;;
15929;SDS011;8064;51.142;4.780;2023-02-12T08:21:12;12.90;;;11.60;;
15929;SDS011;8064;51.142;4.780;2023-02-12T08:23:40;13.83;;;11.67;;
15929;SDS011;8064;51.142;4.780;2023-02-12T08:26:07;13.27;;;11.97;;
15929;SDS011;8064;51.142;4.780;2023-02-12T08:31:37;12.57;;;11.27;;
15929;SDS011;8064;51.142;4.780;2023-02-12T08:34:05;13.20;;;11.90;;
15929;SDS011;8064;51.142;4.780;2023-02-12T08:36:41;12.93;;;10.93;;
15929;SDS011;8064;51.142;4.780;2023-02-12T08:39:09;13.73;;;11.57;;
15929;SDS011;8064;51.142;4.780;2023-02-12T08:41:35;14.03;;;11.40;;
15929;SDS011;8064;51.142;4.780;2023-02-12T08:44:02;13.80;;;11.80;;
15929;SDS011;8064;51.142;4.780;2023-02-12T08:46:30;14.10;;;12.33;;
15929;SDS011;8064;51.142;4.780;2023-02-12T08:48:59;12.97;;;11.43;;
15929;SDS011;8064;51.142;4.780;2023-02-12T08:51:27;15.83;;;12.03;;
15929;SDS011;8064;51.142;4.780;2023-02-12T08:53:56;14.23;;;12.73;;
15929;SDS011;8064;51.142;4.780;2023-02-12T08:56:24;14.40;;;12.13;;
15929;SDS011;8064;51.142;4.780;2023-02-12T08:58:52;13.03;;;11.63;;
15929;SDS011;8064;51.142;4.780;2023-02-12T09:01:19;13.03;;;11.60;;
15929;SDS011;8064;51.142;4.780;2023-02-12T09:03:46;12.73;;;10.90;;
15929;SDS011;8064;51.142;4.780;2023-02-12T09:06:13;14.30;;;12.30;;
15929;SDS011;8064;51.142;4.780;2023-02-12T09:08:40;13.20;;;11.80;;
15929;SDS011;8064;51.142;4.780;2023-02-12T09:11:09;13.27;;;11.83;;
15929;SDS011;8064;51.142;4.780;2023-02-12T09:13:37;14.57;;;11.77;;
15929;SDS011;8064;51.142;4.780;2023-02-12T09:16:05;17.80;;;13.93;;
15929;SDS011;8064;51.142;4.780;2023-02-12T09:18:31;29.43;;;22.40;;
15929;SDS011;8064;51.142;4.780;2023-02-12T09:21:00;19.90;;;15.50;;
15929;SDS011;8064;51.142;4.780;2023-02-12T09:23:27;16.63;;;13.60;;
15929;SDS011;8064;51.142;4.780;2023-02-12T09:25:53;16.27;;;12.93;;
15929;SDS011;8064;51.142;4.780;2023-02-12T09:28:18;14.13;;;12.60;;
15929;SDS011;8064;51.142;4.780;2023-02-12T09:30:44;18.63;;;13.27;;
15929;SDS011;8064;51.142;4.780;2023-02-12T09:33:10;15.13;;;13.00;;
15929;SDS011;8064;51.142;4.780;2023-02-12T09:35:38;14.50;;;13.00;;
15929;SDS011;8064;51.142;4.780;2023-02-12T09:38:04;15.37;;;12.87;;
15929;SDS011;8064;51.142;4.780;2023-02-12T09:40:35;16.80;;;15.00;;
15929;SDS011;8064;51.142;4.780;2023-02-12T09:45:35;21.53;;;15.47;;
15929;SDS011;8064;51.142;4.780;2023-02-12T09:51:06;16.57;;;14.37;;
15929;SDS011;8064;51.142;4.780;2023-02-12T09:53:34;17.40;;;14.53;;
15929;SDS011;8064;51.142;4.780;2023-02-12T09:56:08;18.23;;;15.27;;
15929;SDS011;8064;51.142;4.780;2023-02-12T09:58:40;18.70;;;14.70;;
15929;SDS011;8064;51.142;4.780;2023-02-12T10:01:13;17.07;;;14.80;;
15929;SDS011;8064;51.142;4.780;2023-02-12T10:03:44;17.53;;;14.47;;
15929;SDS011;8064;51.142;4.780;2023-02-12T10:06:14;19.93;;;16.27;;
15929;SDS011;8064;51.142;4.780;2023-02-12T10:08:57;18.03;;;15.23;;
15929;SDS011;8064;51.142;4.780;2023-02-12T10:22:47;19.07;;;16.10;;
15929;SDS011;8064;51.142;4.780;2023-02-12T10:27:59;20.10;;;16.90;;
15929;SDS011;8064;51.142;4.780;2023-02-12T10:33:16;20.53;;;16.33;;
15929;SDS011;8064;51.142;4.780;2023-02-12T10:35:47;19.63;;;16.77;;
15929;SDS011;8064;51.142;4.780;2023-02-12T10:38:19;19.67;;;16.43;;
15929;SDS011;8064;51.142;4.780;2023-02-12T10:40:48;18.27;;;15.17;;
15929;SDS011;8064;51.142;4.780;2023-02-12T10:43:15;19.70;;;14.97;;
15929;SDS011;8064;51.142;4.780;2023-02-12T10:45:41;17.00;;;13.70;;
15929;SDS011;8064;51.142;4.780;2023-02-12T10:48:10;14.50;;;12.87;;
15929;SDS011;8064;51.142;4.780;2023-02-12T10:50:56;17.03;;;15.23;;
15929;SDS011;8064;51.142;4.780;2023-02-12T10:53:44;17.70;;;14.47;;
15929;SDS011;8064;51.142;4.780;2023-02-12T10:58:38;17.60;;;14.40;;
15929;SDS011;8064;51.142;4.780;2023-02-12T11:01:13;16.87;;;14.93;;
15929;SDS011;8064;51.142;4.780;2023-02-12T11:03:43;14.93;;;13.23;;
15929;SDS011;8064;51.142;4.780;2023-02-12T11:06:10;18.17;;;13.70;;
15929;SDS011;8064;51.142;4.780;2023-02-12T11:08:36;15.03;;;12.47;;
15929;SDS011;8064;51.142;4.780;2023-02-12T11:16:52;14.60;;;11.60;;
15929;SDS011;8064;51.142;4.780;2023-02-12T11:19:23;12.77;;;11.40;;
15929;SDS011;8064;51.142;4.780;2023-02-12T11:21:51;12.60;;;11.30;;
15929;SDS011;8064;51.142;4.780;2023-02-12T11:24:32;14.43;;;11.80;;
15929;SDS011;8064;51.142;4.780;2023-02-12T11:27:11;14.00;;;11.70;;
15929;SDS011;8064;51.142;4.780;2023-02-12T11:30:03;13.87;;;11.60;;
15929;SDS011;8064;51.142;4.780;2023-02-12T11:32:34;13.37;;;11.10;;
15929;SDS011;8064;51.142;4.780;2023-02-12T11:38:00;14.13;;;11.27;;
15929;SDS011;8064;51.142;4.780;2023-02-12T11:40:28;13.63;;;11.70;;
15929;SDS011;8064;51.142;4.780;2023-02-12T11:42:58;12.33;;;11.03;;
15929;SDS011;8064;51.142;4.780;2023-02-12T11:51:00;15.17;;;11.60;;
15929;SDS011;8064;51.142;4.780;2023-02-12T11:56:13;11.63;;;10.40;;
15929;SDS011;8064;51.142;4.780;2023-02-12T11:58:39;11.90;;;10.43;;
15929;SDS011;8064;51.142;4.780;2023-02-12T12:01:18;12.80;;;10.47;;
15929;SDS011;8064;51.142;4.780;2023-02-12T12:03:52;13.83;;;10.50;;
15929;SDS011;8064;51.142;4.780;2023-02-12T12:06:39;12.37;;;11.07;;
15929;SDS011;8064;51.142;4.780;2023-02-12T12:15:14;12.67;;;11.03;;
15929;SDS011;8064;51.142;4.780;2023-02-12T12:18:19;11.90;;;10.50;;
15929;SDS011;8064;51.142;4.780;2023-02-12T12:24:19;13.60;;;11.00;;
15929;SDS011;8064;51.142;4.780;2023-02-12T12:26:55;13.70;;;11.10;;
15929;SDS011;8064;51.142;4.780;2023-02-12T12:29:41;14.50;;;11.67;;
15929;SDS011;8064;51.142;4.780;2023-02-12T12:32:16;13.33;;;11.33;;
15929;SDS011;8064;51.142;4.780;2023-02-12T12:34:43;15.80;;;12.63;;
15929;SDS011;8064;51.142;4.780;2023-02-12T12:48:59;14.13;;;12.57;;
15929;SDS011;8064;51.142;4.780;2023-02-12T12:54:30;13.87;;;12.37;;
15929;SDS011;8064;51.142;4.780;2023-02-12T12:57:19;15.97;;;12.43;;
15929;SDS011;8064;51.142;4.780;2023-02-12T13:02:44;14.37;;;12.60;;
15929;SDS011;8064;51.142;4.780;2023-02-12T13:11:37;15.07;;;12.20;;
15929;SDS011;8064;51.142;4.780;2023-02-12T13:17:24;17.23;;;13.63;;
15929;SDS011;8064;51.142;4.780;2023-02-12T13:29:25;16.73;;;13.97;;
15929;SDS011;8064;51.142;4.780;2023-02-12T13:32:12;20.40;;;14.37;;
15929;SDS011;8064;51.142;4.780;2023-02-12T13:38:14;18.27;;;14.07;;
15929;SDS011;8064;51.142;4.780;2023-02-12T13:40:51;22.50;;;15.53;;
15929;SDS011;8064;51.142;4.780;2023-02-12T13:49:15;16.93;;;14.47;;
15929;SDS011;8064;51.142;4.780;2023-02-12T13:52:02;19.77;;;15.50;;
15929;SDS011;8064;51.142;4.780;2023-02-12T14:01:05;17.53;;;14.67;;
15929;SDS011;8064;51.142;4.780;2023-02-12T14:03:34;19.53;;;14.83;;
15929;SDS011;8064;51.142;4.780;2023-02-12T14:06:13;17.03;;;15.10;;
15929;SDS011;8064;51.142;4.780;2023-02-12T14:08:43;18.83;;;15.10;;
15929;SDS011;8064;51.142;4.780;2023-02-12T14:11:13;17.87;;;15.13;;
15929;SDS011;8064;51.142;4.780;2023-02-12T14:21:58;18.37;;;15.00;;
15929;SDS011;8064;51.142;4.780;2023-02-12T14:37:55;17.93;;;13.90;;
15929;SDS011;8064;51.142;4.780;2023-02-12T14:43:01;17.37;;;14.63;;
15929;SDS011;8064;51.142;4.780;2023-02-12T14:45:34;18.00;;;14.90;;
15929;SDS011;8064;51.142;4.780;2023-02-12T14:48:01;18.63;;;15.67;;
15929;SDS011;8064;51.142;4.780;2023-02-12T14:56:01;17.67;;;15.17;;
15929;SDS011;8064;51.142;4.780;2023-02-12T14:58:29;16.77;;;14.83;;
15929;SDS011;8064;51.142;4.780;2023-02-12T15:00:56;19.53;;;15.50;;
15929;SDS011;8064;51.142;4.780;2023-02-12T15:03:28;19.30;;;16.57;;
15929;SDS011;8064;51.142;4.780;2023-02-12T15:09:12;19.20;;;15.67;;
15929;SDS011;8064;51.142;4.780;2023-02-12T15:11:47;18.40;;;16.37;;
15929;SDS011;8064;51.142;4.780;2023-02-12T15:14:30;19.87;;;17.07;;
15929;SDS011;8064;51.142;4.780;2023-02-12T15:17:10;18.17;;;15.93;;
15929;SDS011;8064;51.142;4.780;2023-02-12T15:19:54;22.30;;;15.60;;
15929;SDS011;8064;51.142;4.780;2023-02-12T15:27:57;20.27;;;16.83;;
15929;SDS011;8064;51.142;4.780;2023-02-12T15:30:28;20.37;;;16.53;;
15929;SDS011;8064;51.142;4.780;2023-02-12T15:32:58;20.67;;;17.90;;
15929;SDS011;8064;51.142;4.780;2023-02-12T15:35:28;20.17;;;17.17;;
15929;SDS011;8064;51.142;4.780;2023-02-12T15:37:58;22.80;;;17.70;;
15929;SDS011;8064;51.142;4.780;2023-02-12T15:40:25;21.77;;;18.40;;
15929;SDS011;8064;51.142;4.780;2023-02-12T15:45:23;23.63;;;18.47;;
15929;SDS011;8064;51.142;4.780;2023-02-12T15:53:44;24.83;;;18.47;;
15929;SDS011;8064;51.142;4.780;2023-02-12T15:56:12;22.57;;;18.70;;
15929;SDS011;8064;51.142;4.780;2023-02-12T15:58:45;21.80;;;17.53;;
15929;SDS011;8064;51.142;4.780;2023-02-12T16:01:30;22.40;;;17.80;;
15929;SDS011;8064;51.142;4.780;2023-02-12T16:04:00;23.77;;;18.67;;
15929;SDS011;8064;51.142;4.780;2023-02-12T16:06:30;22.47;;;18.50;;
15929;SDS011;8064;51.142;4.780;2023-02-12T16:11:41;21.17;;;18.60;;
15929;SDS011;8064;51.142;4.780;2023-02-12T16:16:50;24.43;;;20.40;;
15929;SDS011;8064;51.142;4.780;2023-02-12T16:21:47;23.17;;;19.43;;
15929;SDS011;8064;51.142;4.780;2023-02-12T16:24:33;24.00;;;20.10;;
15929;SDS011;8064;51.142;4.780;2023-02-12T16:29:48;24.07;;;20.30;;
15929;SDS011;8064;51.142;4.780;2023-02-12T16:35:04;26.27;;;21.30;;
15929;SDS011;8064;51.142;4.780;2023-02-12T16:37:43;26.33;;;21.87;;
15929;SDS011;8064;51.142;4.780;2023-02-12T16:47:52;27.60;;;22.20;;
15929;SDS011;8064;51.142;4.780;2023-02-12T16:50:21;28.50;;;21.93;;
15929;SDS011;8064;51.142;4.780;2023-02-12T16:52:49;27.77;;;21.20;;
15929;SDS011;8064;51.142;4.780;2023-02-12T16:55:25;29.03;;;22.10;;
15929;SDS011;8064;51.142;4.780;2023-02-12T16:57:51;32.27;;;22.87;;
15929;SDS011;8064;51.142;4.780;2023-02-12T17:00:17;26.97;;;21.33;;
15929;SDS011;8064;51.142;4.780;2023-02-12T17:02:43;29.63;;;21.40;;
15929;SDS011;8064;51.142;4.780;2023-02-12T17:05:11;26.63;;;21.23;;
15929;SDS011;8064;51.142;4.780;2023-02-12T17:07:41;30.83;;;22.67;;
15929;SDS011;8064;51.142;4.780;2023-02-12T17:10:11;25.83;;;20.80;;
15929;SDS011;8064;51.142;4.780;2023-02-12T17:12:49;25.67;;;20.90;;
15929;SDS011;8064;51.142;4.780;2023-02-12T17:15:17;29.53;;;21.60;;
15929;SDS011;8064;51.142;4.780;2023-02-12T17:18:05;26.87;;;20.90;;
15929;SDS011;8064;51.142;4.780;2023-02-12T17:20:32;25.93;;;20.73;;
15929;SDS011;8064;51.142;4.780;2023-02-12T17:22:58;25.57;;;20.53;;
15929;SDS011;8064;51.142;4.780;2023-02-12T17:25:24;26.60;;;20.03;;
15929;SDS011;8064;51.142;4.780;2023-02-12T17:27:50;24.60;;;20.47;;
15929;SDS011;8064;51.142;4.780;2023-02-12T17:30:20;25.77;;;20.30;;
15929;SDS011;8064;51.142;4.780;2023-02-12T17:32:46;25.93;;;20.73;;
15929;SDS011;8064;51.142;4.780;2023-02-12T17:35:12;29.47;;;20.47;;
15929;SDS011;8064;51.142;4.780;2023-02-12T17:37:38;25.47;;;20.47;;
15929;SDS011;8064;51.142;4.780;2023-02-12T17:40:04;27.20;;;21.27;;
15929;SDS011;8064;51.142;4.780;2023-02-12T17:42:31;27.23;;;19.87;;
15929;SDS011;8064;51.142;4.780;2023-02-12T17:44:57;28.03;;;20.53;;
15929;SDS011;8064;51.142;4.780;2023-02-12T17:47:23;28.03;;;21.17;;
15929;SDS011;8064;51.142;4.780;2023-02-12T17:49:49;26.20;;;20.10;;
15929;SDS011;8064;51.142;4.780;2023-02-12T17:52:14;26.87;;;20.93;;
15929;SDS011;8064;51.142;4.780;2023-02-12T17:54:43;27.50;;;21.43;;
15929;SDS011;8064;51.142;4.780;2023-02-12T17:57:09;25.77;;;20.60;;
15929;SDS011;8064;51.142;4.780;2023-02-12T17:59:36;25.17;;;19.83;;
15929;SDS011;8064;51.142;4.780;2023-02-12T18:02:02;25.77;;;20.67;;
15929;SDS011;8064;51.142;4.780;2023-02-12T18:04:30;26.63;;;20.60;;
15929;SDS011;8064;51.142;4.780;2023-02-12T18:06:59;24.97;;;20.40;;
15929;SDS011;8064;51.142;4.780;2023-02-12T18:09:26;27.50;;;20.77;;
15929;SDS011;8064;51.142;4.780;2023-02-12T18:11:52;24.30;;;20.37;;
15929;SDS011;8064;51.142;4.780;2023-02-12T18:14:17;25.07;;;20.13;;
15929;SDS011;8064;51.142;4.780;2023-02-12T18:16:43;25.73;;;20.50;;
15929;SDS011;8064;51.142;4.780;2023-02-12T18:19:09;25.70;;;20.00;;
15929;SDS011;8064;51.142;4.780;2023-02-12T18:21:35;27.13;;;20.53;;
15929;SDS011;8064;51.142;4.780;2023-02-12T18:24:01;27.43;;;21.43;;
15929;SDS011;8064;51.142;4.780;2023-02-12T18:26:27;27.80;;;20.03;;
15929;SDS011;8064;51.142;4.780;2023-02-12T18:28:55;27.57;;;21.30;;